Time;durP1;ratioP1;P1;durP2;ratioP2;P2;SDS_P1;SDS_P2;PMS_P1;PMS_P2;Temp;Humidity;BMP_temperature;BMP_pressure;BME280_temperature;BME280_humidity;BME280_pressure;Samples;Min_cycle;Max_cycle;Signal;HPM_P1;HPM_P2
2023/10/12 00:02:26;;;;;;;43.15;6.95;;;;;;;;;;6083568;23;20677;-47
2023/10/12 00:05:17;;;;;;;41.03;6.97;;;;;;;;;;6081747;23;20026;-48
2023/10/12 00:08:10;;;;;;;37.45;7.05;;;;;;;;;;6083463;23;20623;-50
2023/10/12 00:10:57;;;;;;;44.78;7.50;;;;;;;;;;6082666;23;20027;-60
2023/10/12 00:13:51;;;;;;;48.20;6.47;;;;;;;;;;6083629;23;20279;-60
2023/10/12 00:16:42;;;;;;;27.17;5.18;;;;;;;;;;6081723;23;20590;-59
2023/10/12 00:19:32;;;;;;;43.75;6.90;;;;;;;;;;6081886;23;20094;-60
2023/10/12 00:22:19;;;;;;;46.53;8.50;;;;;;;;;;6081986;23;20089;-59
2023/10/12 00:25:16;;;;;;;35.53;6.13;;;;;;;;;;6080933;23;20034;-67
2023/10/12 00:28:07;;;;;;;34.42;6.82;;;;;;;;;;6083956;23;20082;-61
2023/10/12 00:30:57;;;;;;;43.22;7.18;;;;;;;;;;6082528;23;20026;-61
2023/10/12 00:33:57;;;;;;;44.75;6.35;;;;;;;;;;6083224;23;20356;-62
2023/10/12 00:36:45;;;;;;;40.28;6.60;;;;;;;;;;6082957;23;20470;-62
2023/10/12 00:39:57;;;;;;;31.35;5.63;;;;;;;;;;6053483;23;20121;-62
2023/10/12 00:42:36;;;;;;;36.85;6.45;;;;;;;;;;6054118;23;20502;-61
2023/10/12 00:45:31;;;;;;;35.05;5.85;;;;;;;;;;6051502;23;20090;-57
2023/10/12 00:48:19;;;;;;;38.92;5.57;;;;;;;;;;6052673;23;20026;-66
2023/10/12 00:51:14;;;;;;;38.53;6.47;;;;;;;;;;6054379;23;20019;-67
2023/10/12 00:53:59;;;;;;;34.28;5.40;;;;;;;;;;6053368;23;20086;-66
2023/10/12 00:57:02;;;;;;;38.50;6.40;;;;;;;;;;6054146;23;20022;-66
2023/10/12 00:59:47;;;;;;;43.65;6.18;;;;;;;;;;6053539;23;20261;-67
2023/10/12 01:02:40;;;;;;;43.00;5.05;;;;;;;;;;6054824;23;20031;-50
2023/10/12 01:05:34;;;;;;;28.67;5.30;;;;;;;;;;6052422;23;20101;-60
2023/10/12 01:08:22;;;;;;;32.53;5.82;;;;;;;;;;6050013;23;20018;-61
2023/10/12 01:11:09;;;;;;;38.00;5.50;;;;;;;;;;6054413;23;20050;-62
2023/10/12 01:16:44;;;;;;;;;;;;;;;;;;6053322;23;20476;-61
2023/10/12 01:19:44;;;;;;;34.13;6.18;;;;;;;;;;6052407;23;20448;-50
2023/10/12 01:22:26;;;;;;;26.15;4.55;;;;;;;;;;6051450;23;20360;-58
2023/10/12 01:25:27;;;;;;;31.95;5.60;;;;;;;;;;6051703;23;20027;-59
2023/10/12 01:28:12;;;;;;;24.95;4.43;;;;;;;;;;6054125;23;20110;-57
2023/10/12 01:31:03;;;;;;;28.75;4.40;;;;;;;;;;6053779;23;20070;-58
2023/10/12 01:33:55;;;;;;;31.20;4.57;;;;;;;;;;6054997;23;20070;-58
2023/10/12 01:36:58;;;;;;;31.05;5.57;;;;;;;;;;6055033;23;20034;-58
2023/10/12 01:48:07;;;;;;;22.25;4.13;;;;;;;;;;6056972;23;20023;-67
2023/10/12 01:50:50;;;;;;;29.50;4.72;;;;;;;;;;6055899;23;20026;-67
2023/10/12 01:53:44;;;;;;;30.60;4.90;;;;;;;;;;6056129;23;20345;-66
2023/10/12 01:56:32;;;;;;;25.92;4.35;;;;;;;;;;6053838;23;20409;-51
2023/10/12 01:59:25;;;;;;;25.77;4.93;;;;;;;;;;6054418;23;20030;-61
2023/10/12 02:02:14;;;;;;;34.45;4.40;;;;;;;;;;6056243;23;20508;-60
2023/10/12 02:05:09;;;;;;;27.65;4.38;;;;;;;;;;6055319;23;20023;-61
2023/10/12 02:07:53;;;;;;;30.95;4.40;;;;;;;;;;6054543;23;20049;-61
2023/10/12 02:11:37;;;;;;;32.92;5.10;;;;;;;;;;6054268;23;20030;-60
2023/10/12 02:13:39;;;;;;;26.95;4.65;;;;;;;;;;6047303;23;20034;-60
2023/10/12 02:16:32;;;;;;;29.33;4.70;;;;;;;;;;6054848;23;20501;-60
2023/10/12 02:19:31;;;;;;;31.10;5.50;;;;;;;;;;6055665;23;20031;-66
2023/10/12 02:22:23;;;;;;;27.38;3.92;;;;;;;;;;6055401;23;20023;-67
2023/10/12 02:25:18;;;;;;;26.33;5.05;;;;;;;;;;6053354;23;20090;-66
2023/10/12 02:28:03;;;;;;;29.88;5.00;;;;;;;;;;6055594;23;20350;-65
2023/10/12 02:30:50;;;;;;;28.10;4.13;;;;;;;;;;6053847;23;20473;-67
2023/10/12 02:33:44;;;;;;;27.15;4.40;;;;;;;;;;6055709;23;20513;-63
2023/10/12 02:36:31;;;;;;;25.23;4.70;;;;;;;;;;6053515;23;20422;-59
2023/10/12 02:39:37;;;;;;;26.77;4.60;;;;;;;;;;6078828;23;20032;-60
2023/10/12 02:42:38;;;;;;;23.30;4.32;;;;;;;;;;6083611;23;20109;-59
2023/10/12 02:45:27;;;;;;;21.00;3.55;;;;;;;;;;6081381;23;20030;-59
2023/10/12 02:48:23;;;;;;;25.83;4.95;;;;;;;;;;6084004;23;20029;-59
2023/10/12 02:51:06;;;;;;;22.20;4.18;;;;;;;;;;6079909;23;20034;-60
2023/10/12 02:54:02;;;;;;;24.23;4.70;;;;;;;;;;6084203;23;20023;-59
2023/10/12 02:56:47;;;;;;;25.40;3.95;;;;;;;;;;6082579;23;20378;-49
2023/10/12 02:59:39;;;;;;;27.25;4.18;;;;;;;;;;6082496;23;20085;-52
2023/10/12 03:02:35;;;;;;;28.63;4.30;;;;;;;;;;6083914;23;20023;-48
2023/10/12 03:05:33;;;;;;;28.42;4.25;;;;;;;;;;6083876;23;20026;-47
2023/10/12 03:08:23;;;;;;;34.95;4.75;;;;;;;;;;6083974;23;20065;-49
2023/10/12 03:11:20;;;;;;;26.25;4.20;;;;;;;;;;6083902;23;20085;-61
2023/10/12 03:14:14;;;;;;;31.35;3.92;;;;;;;;;;6082636;23;20022;-51
2023/10/12 03:17:03;;;;;;;19.17;3.45;;;;;;;;;;6082653;23;20030;-48
2023/10/12 03:19:55;;;;;;;25.38;3.80;;;;;;;;;;6082144;23;20026;-48
2023/10/12 03:22:43;;;;;;;25.40;3.85;;;;;;;;;;6082294;23;20400;-48
2023/10/12 03:25:43;;;;;;;27.55;4.45;;;;;;;;;;6083190;23;20026;-46
2023/10/12 03:28:36;;;;;;;20.38;3.55;;;;;;;;;;6083440;23;20022;-60
2023/10/12 03:31:33;;;;;;;20.85;3.92;;;;;;;;;;6082038;23;20030;-61
2023/10/12 03:37:14;;;;;;;25.05;4.47;;;;;;;;;;6082985;23;20030;-61
2023/10/12 03:40:08;;;;;;;15.95;3.33;;;;;;;;;;6054357;23;20035;-60
2023/10/12 03:42:55;;;;;;;;;;;;;;;;;;6055223;23;20026;-60
2023/10/12 03:49:04;;;;;;;28.63;4.78;;;;;;;;;;6054448;23;20071;-60
2023/10/12 03:51:44;;;;;;;19.70;3.40;;;;;;;;;;6053432;23;20033;-57
2023/10/12 03:54:34;;;;;;;18.17;3.33;;;;;;;;;;6053827;23;20023;-56
2023/10/12 04:02:54;;;;;;;16.63;3.42;;;;;;;;;;6054593;23;20091;-58
2023/10/12 04:21:17;;;;;;;20.65;2.90;;;;;;;;;;6052988;23;20078;-58
2023/10/12 04:29:33;;;;;;;27.90;4.18;;;;;;;;;;6052021;23;20454;-59
2023/10/12 04:46:59;;;;;;;21.13;3.05;;;;;;;;;;6079982;23;20029;-60
2023/10/12 04:52:33;;;;;;;15.23;3.30;;;;;;;;;;6078777;23;20302;-60
2023/10/12 04:55:20;;;;;;;17.33;3.63;;;;;;;;;;6078826;23;20463;-60
2023/10/12 04:58:31;;;;;;;23.98;3.67;;;;;;;;;;6076551;23;20030;-60
2023/10/12 05:01:19;;;;;;;18.35;3.17;;;;;;;;;;6077618;23;20030;-46
2023/10/12 05:04:09;;;;;;;24.30;4.20;;;;;;;;;;6079011;23;20026;-60
2023/10/12 05:09:54;;;;;;;26.17;5.07;;;;;;;;;;6084593;23;20360;-60
2023/10/12 05:12:39;;;;;;;24.50;3.83;;;;;;;;;;6085240;23;20026;-60
2023/10/12 05:15:28;;;;;;;18.88;3.72;;;;;;;;;;6083888;23;20026;-60
2023/10/12 05:18:20;;;;;;;21.13;3.97;;;;;;;;;;6085710;23;20031;-60
2023/10/12 05:21:08;;;;;;;19.65;3.80;;;;;;;;;;6084965;23;20037;-47
2023/10/12 05:24:02;;;;;;;24.10;3.97;;;;;;;;;;6085452;23;20086;-59
2023/10/12 05:26:54;;;;;;;22.42;3.80;;;;;;;;;;6084408;23;20033;-58
2023/10/12 05:29:51;;;;;;;22.70;3.30;;;;;;;;;;6085381;23;20545;-59
2023/10/12 05:32:43;;;;;;;18.38;3.95;;;;;;;;;;6084798;23;20030;-59
2023/10/12 05:35:50;;;;;;;23.65;3.83;;;;;;;;;;6084138;23;20118;-59
2023/10/12 05:38:51;;;;;;;26.15;3.80;;;;;;;;;;6085042;23;20027;-67
2023/10/12 05:41:56;;;;;;;19.73;3.60;;;;;;;;;;6083923;23;20464;-67
2023/10/12 05:44:42;;;;;;;16.20;3.72;;;;;;;;;;6085014;23;20481;-68
2023/10/12 05:47:31;;;;;;;21.73;3.20;;;;;;;;;;6085756;23;20027;-67
2023/10/12 05:50:26;;;;;;;20.70;3.42;;;;;;;;;;6084090;23;20082;-68
2023/10/12 05:53:12;;;;;;;22.05;3.42;;;;;;;;;;6084880;23;20058;-67
2023/10/12 05:56:07;;;;;;;23.88;3.92;;;;;;;;;;6083881;23;20428;-49
2023/10/12 05:58:54;;;;;;;19.00;3.70;;;;;;;;;;6086289;23;20390;-54
2023/10/12 06:01:48;;;;;;;23.88;3.55;;;;;;;;;;6086324;23;20050;-56
2023/10/12 06:04:36;;;;;;;17.38;3.22;;;;;;;;;;6084583;23;20076;-57
2023/10/12 06:07:29;;;;;;;15.63;3.15;;;;;;;;;;6084469;23;20033;-58
2023/10/12 06:10:16;;;;;;;16.92;3.40;;;;;;;;;;6084745;23;20102;-57
2023/10/12 06:13:12;;;;;;;20.30;4.07;;;;;;;;;;6085510;23;20078;-56
2023/10/12 06:15:58;;;;;;;23.73;3.95;;;;;;;;;;6083774;23;20026;-49
2023/10/12 06:18:54;;;;;;;20.73;3.67;;;;;;;;;;6085977;23;20027;-60
2023/10/12 06:21:50;;;;;;;25.73;3.95;;;;;;;;;;6083649;23;20082;-58
2023/10/12 06:24:44;;;;;;;32.15;3.53;;;;;;;;;;6082669;23;20483;-58
2023/10/12 06:27:31;;;;;;;21.45;3.95;;;;;;;;;;6082635;23;20035;-58
2023/10/12 06:30:24;;;;;;;14.70;2.60;;;;;;;;;;6082945;23;20025;-58
2023/10/12 06:33:15;;;;;;;17.23;3.95;;;;;;;;;;6083963;23;20481;-67
2023/10/12 06:36:16;;;;;;;21.65;3.63;;;;;;;;;;6083194;23;20101;-60
2023/10/12 06:41:58;;;;;;;24.98;3.92;;;;;;;;;;6082119;23;20366;-60
2023/10/12 06:44:50;;;;;;;14.57;3.28;;;;;;;;;;6083329;23;20026;-60
2023/10/12 06:47:42;;;;;;;15.05;3.00;;;;;;;;;;6083174;23;20421;-59
2023/10/12 06:50:29;;;;;;;17.48;3.05;;;;;;;;;;6082932;23;20515;-58
2023/10/12 06:53:24;;;;;;;15.80;3.30;;;;;;;;;;6083244;23;20018;-59
2023/10/12 07:01:38;;;;;;;17.50;2.58;;;;;;;;;;6081369;23;20023;-60
2023/10/12 07:04:38;;;;;;;18.20;2.75;;;;;;;;;;6081591;23;20540;-59
2023/10/12 07:07:17;;;;;;;17.92;3.85;;;;;;;;;;6082517;23;20488;-60
2023/10/12 07:12:48;;;;;;;17.60;3.08;;;;;;;;;;6082232;23;20553;-67
2023/10/12 07:15:40;;;;;;;17.05;3.50;;;;;;;;;;6081873;23;20026;-67
2023/10/12 07:18:26;;;;;;;19.70;3.25;;;;;;;;;;6081297;23;20454;-68
2023/10/12 07:21:40;;;;;;;20.55;3.33;;;;;;;;;;6082205;23;20033;-67
2023/10/12 07:24:30;;;;;;;24.75;3.35;;;;;;;;;;6082573;23;20555;-68
2023/10/12 07:27:25;;;;;;;15.07;2.97;;;;;;;;;;6082262;23;20022;-61
2023/10/12 07:30:22;;;;;;;18.85;2.80;;;;;;;;;;6083439;23;20018;-61
2023/10/12 07:33:09;;;;;;;17.92;3.10;;;;;;;;;;6081849;23;20058;-60
2023/10/12 07:36:06;;;;;;;11.20;2.58;;;;;;;;;;6080852;23;20053;-61
2023/10/12 07:39:38;;;;;;;14.13;2.80;;;;;;;;;;6082336;23;20022;-60
2023/10/12 07:42:27;;;;;;;13.07;3.40;;;;;;;;;;6082080;23;20026;-60
2023/10/12 07:45:26;;;;;;;15.43;2.53;;;;;;;;;;6082489;23;20089;-59
2023/10/12 07:48:09;;;;;;;20.42;3.05;;;;;;;;;;6082414;23;20026;-68
2023/10/12 07:51:59;;;;;;;20.70;2.95;;;;;;;;;;6082573;23;20029;-68
2023/10/12 07:53:57;;;;;;;17.95;2.72;;;;;;;;;;6074187;23;20371;-69
2023/10/12 07:56:52;;;;;;;15.38;3.08;;;;;;;;;;6082673;23;20061;-68
2023/10/12 07:59:38;;;;;;;8.57;2.00;;;;;;;;;;6081206;23;20023;-68
2023/10/12 08:13:39;;;;;;;14.55;2.90;;;;;;;;;;6083295;23;20057;-61
2023/10/12 08:16:14;;;;;;;11.15;2.72;;;;;;;;;;6082687;23;20052;-60
2023/10/12 08:26:57;;;;;;;10.10;1.80;;;;;;;;;;6080284;23;20022;-60
2023/10/12 08:32:28;;;;;;;13.32;2.70;;;;;;;;;;6081267;23;20026;-59
2023/10/12 08:35:38;;;;;;;11.68;2.10;;;;;;;;;;6082651;23;20113;-60
2023/10/12 08:38:33;;;;;;;18.48;2.17;;;;;;;;;;6081952;23;20101;-61
2023/10/12 08:41:58;;;;;;;10.23;2.17;;;;;;;;;;6081586;23;20033;-49
2023/10/12 08:44:24;;;;;;;10.93;2.67;;;;;;;;;;6080150;23;20038;-61
2023/10/12 08:48:01;;;;;;;16.10;2.20;;;;;;;;;;6081813;23;20621;-61
2023/10/12 08:50:47;;;;;;;14.63;2.40;;;;;;;;;;6074771;23;20045;-61
2023/10/12 08:53:04;;;;;;;13.90;2.42;;;;;;;;;;6082431;23;20081;-60
2023/10/12 08:55:52;;;;;;;14.15;1.83;;;;;;;;;;6081715;23;20026;-61
2023/10/12 08:58:51;;;;;;;7.05;2.20;;;;;;;;;;6081946;23;20288;-69
2023/10/12 09:01:41;;;;;;;;;;;;;;;;;;6079111;23;20026;-58
2023/10/12 09:04:29;;;;;;;9.63;2.20;;;;;;;;;;6081632;23;19917;-50
2023/10/12 09:07:19;;;;;;;12.75;2.13;;;;;;;;;;6082682;23;20023;-51
2023/10/12 09:10:36;;;;;;;8.13;1.98;;;;;;;;;;6081617;23;20026;-53
2023/10/12 09:13:05;;;;;;;10.93;2.30;;;;;;;;;;6082307;23;20101;-51
2023/10/12 09:16:02;;;;;;;14.43;2.67;;;;;;;;;;6080324;23;20027;-50
2023/10/12 09:18:57;;;;;;;13.07;2.30;;;;;;;;;;6081402;23;20033;-57
2023/10/12 09:21:57;;;;;;;10.82;2.22;;;;;;;;;;6082147;23;20019;-52
2023/10/12 09:24:50;;;;;;;10.48;2.15;;;;;;;;;;6081637;23;20506;-51
2023/10/12 09:27:48;;;;;;;8.75;2.10;;;;;;;;;;6081481;23;20070;-52
2023/10/12 09:30:35;;;;;;;10.82;2.10;;;;;;;;;;6080235;23;20018;-52
2023/10/12 09:36:11;;;;;;;14.95;2.30;;;;;;;;;;6081249;23;20029;-60
2023/10/12 09:39:00;;;;;;;17.65;2.60;;;;;;;;;;6080930;23;20026;-51
2023/10/12 09:42:09;;;;;;;10.10;2.13;;;;;;;;;;6081023;23;20030;-53
2023/10/12 09:45:01;;;;;;;11.13;2.03;;;;;;;;;;6081444;23;20026;-50
2023/10/12 09:47:55;;;;;;;15.35;2.70;;;;;;;;;;6081358;23;20534;-52
2023/10/12 09:50:44;;;;;;;11.98;2.80;;;;;;;;;;6081488;23;20082;-53
2023/10/12 09:53:38;;;;;;;15.07;2.72;;;;;;;;;;6081749;23;20527;-60
2023/10/12 09:56:44;;;;;;;14.75;2.70;;;;;;;;;;6083448;23;20033;-58
2023/10/12 09:59:22;;;;;;;10.35;2.67;;;;;;;;;;6083697;23;20026;-61
2023/10/12 10:02:28;;;;;;;13.63;2.92;;;;;;;;;;6082774;23;20069;-60
2023/10/12 10:08:07;;;;;;;15.23;2.53;;;;;;;;;;6082473;23;20104;-60
2023/10/12 10:11:11;;;;;;;13.82;2.38;;;;;;;;;;6082333;23;20026;-60
2023/10/12 10:13:53;;;;;;;12.18;2.47;;;;;;;;;;6083074;23;20030;-47
2023/10/12 10:16:46;;;;;;;8.75;2.53;;;;;;;;;;6082139;23;20056;-60
2023/10/12 10:19:34;;;;;;;15.63;2.65;;;;;;;;;;6084304;23;20247;-60
2023/10/12 10:22:31;;;;;;;13.20;2.47;;;;;;;;;;6081960;23;20026;-60
2023/10/12 10:25:17;;;;;;;11.93;1.98;;;;;;;;;;6084076;23;20526;-60
2023/10/12 10:28:10;;;;;;;9.50;2.72;;;;;;;;;;6083339;23;20476;-60
2023/10/12 10:30:59;;;;;;;11.65;2.67;;;;;;;;;;6081765;23;20030;-60
2023/10/12 10:33:55;;;;;;;9.70;2.20;;;;;;;;;;6084199;23;20733;-59
2023/10/12 10:36:40;;;;;;;19.45;2.90;;;;;;;;;;6083064;23;20130;-60
2023/10/12 10:39:43;;;;;;;12.30;2.17;;;;;;;;;;6082808;23;20113;-62
2023/10/12 10:42:31;;;;;;;12.27;2.85;;;;;;;;;;6082902;23;20069;-61
2023/10/12 10:45:23;;;;;;;10.15;2.95;;;;;;;;;;6081808;23;20540;-61
2023/10/12 10:48:14;;;;;;;12.93;2.85;;;;;;;;;;6082853;23;20058;-59
2023/10/12 10:51:27;;;;;;;8.60;2.25;;;;;;;;;;6083536;23;20113;-58
2023/10/12 10:54:18;;;;;;;13.85;2.47;;;;;;;;;;6082128;23;20026;-53
2023/10/12 10:57:16;;;;;;;11.63;2.20;;;;;;;;;;6082245;23;20029;-52
2023/10/12 11:00:16;;;;;;;10.98;2.85;;;;;;;;;;6083644;23;20089;-54
2023/10/12 11:03:10;;;;;;;11.20;1.95;;;;;;;;;;6082579;23;20853;-52
2023/10/12 11:05:57;;;;;;;10.27;2.53;;;;;;;;;;6083059;23;20057;-54
2023/10/12 11:09:14;;;;;;;10.95;2.45;;;;;;;;;;6082676;23;20658;-60
2023/10/12 11:12:00;;;;;;;6.85;2.22;;;;;;;;;;6083639;23;20027;-63
2023/10/12 11:15:01;;;;;;;10.57;2.83;;;;;;;;;;6082779;23;20027;-62
2023/10/12 11:18:00;;;;;;;9.98;2.67;;;;;;;;;;6083653;23;20023;-62
2023/10/12 11:20:49;;;;;;;8.68;2.22;;;;;;;;;;6083411;23;20070;-63
2023/10/12 11:23:38;;;;;;;14.50;3.08;;;;;;;;;;6082497;23;20023;-63
2023/10/12 11:26:26;;;;;;;13.20;2.92;;;;;;;;;;6081784;23;20022;-62
2023/10/12 11:29:26;;;;;;;13.82;3.08;;;;;;;;;;6081805;23;20110;-49
2023/10/12 11:32:16;;;;;;;15.32;3.00;;;;;;;;;;6081826;23;20030;-50
2023/10/12 11:35:08;;;;;;;13.25;2.72;;;;;;;;;;6083059;23;20030;-51
2023/10/12 11:37:57;;;;;;;13.23;2.80;;;;;;;;;;6082611;23;20026;-50
2023/10/12 11:40:55;;;;;;;14.45;2.88;;;;;;;;;;6082092;23;20026;-50
2023/10/12 11:43:49;;;;;;;14.40;3.30;;;;;;;;;;6082349;23;20026;-52
2023/10/12 11:46:43;;;;;;;15.20;2.40;;;;;;;;;;6081428;23;20093;-58
2023/10/12 11:49:32;;;;;;;13.55;2.88;;;;;;;;;;6083272;23;20027;-57
2023/10/12 11:52:32;;;;;;;15.02;3.25;;;;;;;;;;6081806;23;20027;-58
2023/10/12 11:55:19;;;;;;;11.00;2.63;;;;;;;;;;6080571;23;20061;-58
2023/10/12 11:58:18;;;;;;;24.77;3.03;;;;;;;;;;6081697;23;20097;-59
2023/10/12 12:01:09;;;;;;;11.80;2.95;;;;;;;;;;6082595;23;20354;-59
2023/10/12 12:03:55;;;;;;;18.20;3.95;;;;;;;;;;6083105;23;20307;-49
2023/10/12 12:06:50;;;;;;;17.20;3.85;;;;;;;;;;6082962;23;20022;-59
2023/10/12 12:09:48;;;;;;;11.55;3.05;;;;;;;;;;6082720;23;20494;-59
2023/10/12 12:12:38;;;;;;;15.00;3.10;;;;;;;;;;6081592;23;20030;-59
2023/10/12 12:15:35;;;;;;;14.88;3.33;;;;;;;;;;6080321;23;20034;-59
2023/10/12 12:18:22;;;;;;;11.45;2.88;;;;;;;;;;6081099;23;20766;-59
2023/10/12 12:21:18;;;;;;;12.20;3.15;;;;;;;;;;6081129;23;20085;-59
2023/10/12 12:24:29;;;;;;;17.15;3.33;;;;;;;;;;6082581;23;20061;-48
2023/10/12 12:26:58;;;;;;;14.73;2.90;;;;;;;;;;6082253;23;20019;-50
2023/10/12 12:29:45;;;;;;;16.33;3.33;;;;;;;;;;6082315;23;20472;-47
2023/10/12 12:33:15;;;;;;;14.35;2.78;;;;;;;;;;6081745;23;20022;-50
2023/10/12 12:36:04;;;;;;;12.75;3.13;;;;;;;;;;6080963;23;20365;-48
2023/10/12 12:39:09;;;;;;;17.05;3.05;;;;;;;;;;6081862;23;20097;-58
2023/10/12 12:42:02;;;;;;;19.67;3.38;;;;;;;;;;6081709;23;20030;-58
2023/10/12 12:44:49;;;;;;;11.52;2.90;;;;;;;;;;6082197;23;20034;-59
2023/10/12 12:47:43;;;;;;;13.32;3.22;;;;;;;;;;6080482;23;20405;-59
2023/10/12 12:50:31;;;;;;;13.38;3.20;;;;;;;;;;6081745;23;20034;-59
2023/10/12 12:53:24;;;;;;;11.40;2.83;;;;;;;;;;6079780;23;20034;-59
2023/10/12 12:56:14;;;;;;;15.18;2.83;;;;;;;;;;6081464;23;20049;-59
2023/10/12 12:59:06;;;;;;;16.95;3.22;;;;;;;;;;6081874;23;20027;-58
2023/10/12 13:01:53;;;;;;;17.02;3.33;;;;;;;;;;6082287;23;20141;-66
2023/10/12 13:04:46;;;;;;;11.82;2.80;;;;;;;;;;6082302;23;20109;-66
2023/10/12 13:07:33;;;;;;;12.45;3.13;;;;;;;;;;6081602;23;20026;-66
2023/10/12 13:10:29;;;;;;;12.50;2.88;;;;;;;;;;6080324;23;20057;-66
2023/10/12 13:13:15;;;;;;;16.40;2.95;;;;;;;;;;6081191;23;20023;-66
2023/10/12 13:16:12;;;;;;;16.58;3.20;;;;;;;;;;6081656;23;20392;-47
2023/10/12 13:19:01;;;;;;;12.95;2.78;;;;;;;;;;6081690;23;20026;-58
2023/10/12 13:21:54;;;;;;;13.20;2.47;;;;;;;;;;6081694;23;20412;-59
2023/10/12 13:24:42;;;;;;;17.83;3.05;;;;;;;;;;6081370;23;20022;-58
2023/10/12 13:27:35;;;;;;;12.20;2.40;;;;;;;;;;6078617;23;20348;-59
2023/10/12 13:30:23;;;;;;;11.38;2.65;;;;;;;;;;6082744;23;20022;-59
2023/10/12 13:33:16;;;;;;;13.07;3.20;;;;;;;;;;6083380;23;20029;-59
2023/10/12 13:36:11;;;;;;;12.63;2.92;;;;;;;;;;6082923;23;20019;-58
2023/10/12 13:39:12;;;;;;;9.30;2.60;;;;;;;;;;6084099;23;20106;-59
2023/10/12 13:42:15;;;;;;;12.98;2.58;;;;;;;;;;6082872;23;20022;-59
2023/10/12 13:45:12;;;;;;;9.25;2.40;;;;;;;;;;6083978;23;20101;-60
2023/10/12 13:47:57;;;;;;;9.65;2.17;;;;;;;;;;6083535;23;20499;-59
2023/10/12 13:50:51;;;;;;;12.23;2.42;;;;;;;;;;6083605;23;20745;-62
2023/10/12 13:53:38;;;;;;;17.80;2.80;;;;;;;;;;6081867;23;20026;-50
2023/10/12 13:56:34;;;;;;;8.15;2.13;;;;;;;;;;6081962;23;20567;-66
2023/10/12 13:59:24;;;;;;;15.65;2.90;;;;;;;;;;6083205;23;20117;-66
2023/10/12 14:02:14;;;;;;;12.73;2.50;;;;;;;;;;6082833;23;20399;-68
2023/10/12 14:05:01;;;;;;;10.50;2.60;;;;;;;;;;6079759;23;20121;-65
2023/10/12 14:07:55;;;;;;;16.70;2.90;;;;;;;;;;6081886;23;20068;-68
2023/10/12 14:10:23;;;;;;;13.57;2.75;;;;;;;;;;6082792;23;20026;-66
2023/10/12 14:12:53;;;;;;;13.57;2.55;;;;;;;;;;6081010;23;20026;-60
2023/10/12 14:15:47;;;;;;;20.08;2.53;;;;;;;;;;6080582;23;20026;-67
2023/10/12 14:18:34;;;;;;;12.00;2.28;;;;;;;;;;6079256;23;20030;-68
2023/10/12 14:21:29;;;;;;;16.58;3.22;;;;;;;;;;6078175;23;20464;-66
2023/10/12 14:24:16;;;;;;;9.43;2.00;;;;;;;;;;6079184;23;20148;-67
2023/10/12 14:27:10;;;;;;;12.65;2.80;;;;;;;;;;6078142;23;20125;-66
2023/10/12 14:29:58;;;;;;;13.70;2.97;;;;;;;;;;6079431;23;20027;-66
2023/10/12 14:32:52;;;;;;;13.23;2.60;;;;;;;;;;6079037;23;20081;-59
2023/10/12 14:35:39;;;;;;;15.27;3.20;;;;;;;;;;6077745;23;20118;-54
2023/10/12 14:38:33;;;;;;;14.70;3.30;;;;;;;;;;6078298;23;20037;-59
2023/10/12 14:41:27;;;;;;;8.50;2.30;;;;;;;;;;6080601;23;20022;-59
2023/10/12 14:44:20;;;;;;;12.85;2.53;;;;;;;;;;6081802;23;20029;-58
2023/10/12 14:47:07;;;;;;;15.02;2.90;;;;;;;;;;6080772;23;20574;-58
2023/10/12 14:50:05;;;;;;;19.13;2.97;;;;;;;;;;6079978;23;20543;-61
2023/10/12 14:52:53;;;;;;;15.05;2.60;;;;;;;;;;6081316;23;20022;-46
2023/10/12 14:55:44;;;;;;;14.45;2.80;;;;;;;;;;6081281;23;20087;-49
2023/10/12 14:58:32;;;;;;;16.13;2.95;;;;;;;;;;6079643;23;20058;-50
2023/10/12 15:01:28;;;;;;;13.80;2.58;;;;;;;;;;6080743;23;20022;-51
2023/10/12 15:04:16;;;;;;;14.23;2.92;;;;;;;;;;6078977;23;20022;-53
2023/10/12 15:07:10;;;;;;;8.68;2.50;;;;;;;;;;6079083;23;20516;-53
2023/10/12 15:09:58;;;;;;;14.35;2.65;;;;;;;;;;6079634;23;20385;-53
2023/10/12 15:12:52;;;;;;;14.23;2.58;;;;;;;;;;6077543;23;20690;-53
2023/10/12 15:15:39;;;;;;;13.52;2.95;;;;;;;;;;6078365;23;20045;-54
2023/10/12 15:18:34;;;;;;;10.10;2.33;;;;;;;;;;6079645;23;20263;-54
2023/10/12 15:21:21;;;;;;;12.90;2.53;;;;;;;;;;6081558;23;20094;-53
2023/10/12 15:24:14;;;;;;;10.75;2.42;;;;;;;;;;6079364;23;20033;-50
2023/10/12 15:27:02;;;;;;;11.45;2.33;;;;;;;;;;6080651;23;20084;-67
2023/10/12 15:29:55;;;;;;;13.00;2.70;;;;;;;;;;6081409;23;20408;-61
2023/10/12 15:32:54;;;;;;;14.95;2.72;;;;;;;;;;6080588;23;20088;-62
2023/10/12 15:35:40;;;;;;;11.25;2.72;;;;;;;;;;6080264;23;20022;-62
2023/10/12 15:38:33;;;;;;;11.38;2.60;;;;;;;;;;6079360;23;20030;-61
2023/10/12 15:41:29;;;;;;;11.90;2.50;;;;;;;;;;6077160;23;20026;-60
2023/10/12 15:44:03;;;;;;;15.65;3.13;;;;;;;;;;6080426;23;20054;-52
2023/10/12 15:46:30;;;;;;;14.70;3.10;;;;;;;;;;6078896;23;20449;-59
2023/10/12 15:49:24;;;;;;;14.50;2.50;;;;;;;;;;6079457;23;20057;-59
2023/10/12 15:52:18;;;;;;;10.48;1.90;;;;;;;;;;6081782;23;20025;-59
2023/10/12 15:55:06;;;;;;;12.75;3.47;;;;;;;;;;6078486;23;20117;-56
2023/10/12 15:58:00;;;;;;;16.40;2.92;;;;;;;;;;6080044;23;20026;-59
2023/10/12 16:00:47;;;;;;;17.25;3.05;;;;;;;;;;6079933;23;20137;-59
2023/10/12 16:03:40;;;;;;;13.93;2.20;;;;;;;;;;6080356;23;20264;-58
2023/10/12 16:06:28;;;;;;;16.58;2.55;;;;;;;;;;6081091;23;20022;-52
2023/10/12 16:09:24;;;;;;;14.00;2.70;;;;;;;;;;6079600;23;20090;-50
2023/10/12 16:12:09;;;;;;;19.35;2.85;;;;;;;;;;6079269;23;20491;-47
2023/10/12 16:15:02;;;;;;;10.50;2.60;;;;;;;;;;6078114;23;20125;-50
2023/10/12 16:17:50;;;;;;;15.38;2.67;;;;;;;;;;6076356;23;20032;-50
2023/10/12 16:20:44;;;;;;;20.75;3.00;;;;;;;;;;6077777;23;20026;-51
2023/10/12 16:23:31;;;;;;;14.38;2.72;;;;;;;;;;6077269;23;20033;-48
2023/10/12 16:26:26;;;;;;;12.98;2.78;;;;;;;;;;6076258;23;20027;-50
2023/10/12 16:29:13;;;;;;;14.43;2.92;;;;;;;;;;6076466;23;20156;-50
2023/10/12 16:32:25;;;;;;;22.85;3.05;;;;;;;;;;6076702;23;20023;-49
2023/10/12 16:35:17;;;;;;;11.80;2.42;;;;;;;;;;6076548;23;20688;-46
2023/10/12 16:38:08;;;;;;;13.82;2.75;;;;;;;;;;6077287;23;20456;-50
2023/10/12 16:41:03;;;;;;;16.85;2.83;;;;;;;;;;6079278;23;20029;-60
2023/10/12 16:43:56;;;;;;;12.00;2.20;;;;;;;;;;6078251;23;20030;-50
2023/10/12 16:46:44;;;;;;;12.65;3.25;;;;;;;;;;6078895;23;20027;-53
2023/10/12 16:49:37;;;;;;;16.08;3.08;;;;;;;;;;6081302;23;20056;-50
2023/10/12 16:52:31;;;;;;;15.35;3.60;;;;;;;;;;6081958;23;20023;-50
2023/10/12 16:55:27;;;;;;;15.80;3.30;;;;;;;;;;6077950;23;20097;-49
2023/10/12 16:58:20;;;;;;;14.45;3.08;;;;;;;;;;6076727;23;20030;-58
2023/10/12 17:01:06;;;;;;;13.50;2.70;;;;;;;;;;6080879;23;20030;-60
2023/10/12 17:04:00;;;;;;;11.02;2.78;;;;;;;;;;6079177;23;20026;-60
2023/10/12 17:06:55;;;;;;;18.55;3.25;;;;;;;;;;6079559;23;20018;-60
2023/10/12 17:09:48;;;;;;;10.38;2.20;;;;;;;;;;6079948;23;20030;-60
2023/10/12 17:12:44;;;;;;;10.32;2.75;;;;;;;;;;6080030;23;20038;-61
2023/10/12 17:15:31;;;;;;;10.65;2.40;;;;;;;;;;6080983;23;20260;-59
2023/10/12 17:18:25;;;;;;;19.58;3.17;;;;;;;;;;6079560;23;20360;-58
2023/10/12 17:21:12;;;;;;;20.73;3.67;;;;;;;;;;6081582;23;20030;-60
2023/10/12 17:24:06;;;;;;;17.08;2.80;;;;;;;;;;6079809;23;20026;-58
2023/10/12 17:27:00;;;;;;;22.88;4.10;;;;;;;;;;6080734;23;20026;-60
2023/10/12 17:29:49;;;;;;;18.77;3.45;;;;;;;;;;6081326;23;20034;-58
2023/10/12 17:32:45;;;;;;;11.95;2.40;;;;;;;;;;6075536;23;20125;-59
2023/10/12 17:35:31;;;;;;;18.50;2.88;;;;;;;;;;6079254;23;20046;-61
2023/10/12 17:38:24;;;;;;;20.30;2.83;;;;;;;;;;6080560;23;20027;-61
2023/10/12 17:41:26;;;;;;;8.98;2.85;;;;;;;;;;6080534;23;20046;-62
2023/10/12 17:44:13;;;;;;;19.70;2.85;;;;;;;;;;6079730;23;20480;-62
2023/10/12 17:47:09;;;;;;;14.65;2.90;;;;;;;;;;6080285;23;20026;-62
2023/10/12 17:49:55;;;;;;;11.73;2.90;;;;;;;;;;6080646;23;20125;-62
2023/10/12 17:52:51;;;;;;;19.55;2.78;;;;;;;;;;6080062;23;20345;-49
2023/10/12 17:55:36;;;;;;;21.65;3.53;;;;;;;;;;6079939;23;20026;-53
2023/10/12 17:58:31;;;;;;;14.43;3.05;;;;;;;;;;6079385;23;20073;-53
2023/10/12 18:01:18;;;;;;;15.15;3.20;;;;;;;;;;6079442;23;20030;-48
2023/10/12 18:04:11;;;;;;;14.63;3.95;;;;;;;;;;6080540;23;20050;-51
2023/10/12 18:07:00;;;;;;;13.73;2.72;;;;;;;;;;6081789;23;20226;-50
2023/10/12 18:09:53;;;;;;;23.33;3.63;;;;;;;;;;6079949;23;20022;-61
2023/10/12 18:12:40;;;;;;;21.52;3.03;;;;;;;;;;6081948;23;20057;-66
2023/10/12 18:15:36;;;;;;;15.20;2.95;;;;;;;;;;6080807;23;20472;-61
2023/10/12 18:18:20;;;;;;;16.27;3.15;;;;;;;;;;6082213;23;20023;-60
2023/10/12 18:21:14;;;;;;;16.10;3.30;;;;;;;;;;6082479;23;20026;-60
2023/10/12 18:24:01;;;;;;;16.63;2.88;;;;;;;;;;6080301;23;20027;-61
2023/10/12 18:26:58;;;;;;;11.18;3.22;;;;;;;;;;6082676;23;20094;-61
2023/10/12 18:29:45;;;;;;;12.65;2.47;;;;;;;;;;6083495;23;20366;-59
2023/10/12 18:32:40;;;;;;;17.73;3.42;;;;;;;;;;6081384;23;20026;-50
2023/10/12 18:35:27;;;;;;;26.70;3.10;;;;;;;;;;6082171;23;20373;-45
2023/10/12 23:04:26;;;;;;;18.45;3.13;;;;;;;;;;6077272;23;20071;-55
2023/10/12 23:07:19;;;;;;;25.58;3.75;;;;;;;;;;6083247;23;20030;-60